Nairobi Jomo, Kenya

9:19 PM EAT on September 22, 2014 (GMT +0300)
Jomo Kenyatta | Change Station
CLOSE
Current Station
Airport
Location: Nairobi Jomo,
Elevation: 5328 ft
Nearby Weather Stations

Elev 5328 ft 1.33 °S, 36.92 °E | Updated 49 minutes ago

Mostly Cloudy
Mostly Cloudy
70 °F
Feels Like 70 °F
N
13
Wind Variable Wind from East

Today
High -- | Low -- °F
--% Chance of Precip.
Yesterday
High -- | Low -- °F
Precip. -- in
6:21 AM 6:28 PM
Waning Crescent, 2% visible
Pressure 30.15 in
Visibility 6.2 miles
Clouds Mostly Cloudy 2200 ft
Dew Point 50 °F
Humidity 49%
Rainfall 0.00 in
Snow Depth Not available.
UV 0 out of 12
Pollen Not available.
Air Quality Not available.
Flu Activity Not available.
METAR HKJK 221730Z 09011KT 9999 BKN022 21/10 Q1021 NOSIG

More Conditions Fewer Conditions

Pressure 30.15 in
Visibility 6.2 miles
Clouds Mostly Cloudy 2200 ft
Dew Point 50 °F
Humidity 49%
Rainfall 0.00 in
Snow Depth Not available.
UV 0 out of 12
Pollen Not available.
Air Quality Not available.
Flu Activity Not available.
METAR HKJK 221730Z 09011KT 9999 BKN022 21/10 Q1021 NOSIG

More Conditions Fewer Conditions

10-Day Weather Forecast

Almanac

Astronomy

Sep. 22, 2014 Rise Set
Actual Time 6:21 AM EAT 6:28 PM EAT
Civil Twilight 6:01 AM EAT 6:49 PM EAT
Nautical Twilight 5:37 AM EAT 7:13 PM EAT
Astronomical Twilight 5:13 AM EAT 7:37 PM EAT
Moon 4:51 AM EAT 5:11 PM EAT
Length of Visible Light 12h 47m
Length of Day
12h 06m
Tomorrow will be 0m 4s longer.
Waning Crescent, 2% of the Moon is Illuminated
Today
Waning Crescent
Sep 24
New
Oct 1
First Quarter
Oct 8
Full
Oct 15
Last Quarter

Today's Extremes

Country Highs Country Lows

Community

WunderPhotos

Upload Photos

1,755,498 photos uploaded!

WunderBlogs® & News

By Dr. Jeff Masters
Director of Meteorology, Weather Underground
By Kari Strenfel
Meteorologist, Weather Underground
By Christopher C. Burt
Weather Historian, Weather Underground
September 22, 2014
September 22, 2014
September 22, 2014

Nearby

Snow Depth

Not available.

Earthquake Activity

City Distance Mag. Time & Date
No recent earthquake activity has been reported nearby.
Minimum magnitude displayed is 2.5.

Coastal Water Temperatures

Place Temperature
No Stations Reporting

Nearby Weather Stations